Time;durP1;ratioP1;P1;durP2;ratioP2;P2;SDS_P1;SDS_P2;PMS_P1;PMS_P2;Temp;Humidity;BMP_temperature;BMP_pressure;BME280_temperature;BME280_humidity;BME280_pressure;Samples;Min_cycle;Max_cycle;Signal;HPM_P1;HPM_P2
2023/01/24 00:02:49;;;;;;;1.60;1.58;;;;;;;5.99;65.46;101849.59;18497015;32;20111;-58
2023/01/24 00:12:52;;;;;;;0.73;0.73;;;;;;;6.29;64.44;101838.66;18496543;32;20107;-58
2023/01/24 00:22:56;;;;;;;0.50;0.50;;;;;;;6.34;64.08;101847.50;18496400;32;20444;-59
2023/01/24 00:32:59;;;;;;;0.60;0.60;;;;;;;6.25;64.42;101850.63;18497142;32;20211;-58
2023/01/24 00:43:04;;;;;;;4.15;2.67;;;;;;;6.02;64.58;101855.78;18495792;32;20153;-58
2023/01/24 00:53:07;;;;;;;0.50;0.50;;;;;;;5.84;65.05;101866.25;18493674;32;20138;-58
2023/01/24 01:03:14;;;;;;;1.95;0.98;;;;;;;6.01;64.24;101876.44;18494502;32;20147;-58
2023/01/24 01:13:17;;;;;;;3.20;2.35;;;;;;;5.69;64.51;101882.06;18495151;32;20361;-58
2023/01/24 01:23:22;;;;;;;0.70;0.70;;;;;;;5.73;64.72;101888.28;18493193;32;20434;-58
2023/01/24 01:33:25;;;;;;;0.45;0.45;;;;;;;5.33;65.30;101897.81;18492640;32;20138;-58
2023/01/24 01:43:30;;;;;;;0.50;0.50;;;;;;;5.45;64.36;101913.88;18492007;32;20438;-58
2023/01/24 01:53:37;;;;;;;0.55;0.55;;;;;;;5.23;64.63;101907.75;18491147;32;20487;-58
2023/01/24 02:03:45;;;;;;;0.80;0.80;;;;;;;5.31;65.07;101918.47;18496599;32;20085;-58
2023/01/24 02:13:48;;;;;;;1.67;1.60;;;;;;;5.32;65.05;101922.84;18499867;32;20088;-58
2023/01/24 02:23:58;;;;;;;0.65;0.65;;;;;;;5.32;65.08;101916.75;18499857;32;20759;-58
2023/01/24 02:34:02;;;;;;;1.30;1.10;;;;;;;5.26;64.62;101914.78;18500922;32;20089;-58
2023/01/24 02:44:10;;;;;;;0.60;0.60;;;;;;;5.03;64.40;101919.84;18499393;32;20119;-58
2023/01/24 02:54:14;;;;;;;0.52;0.52;;;;;;;5.08;64.37;101920.03;18499029;32;20396;-58
2023/01/24 03:04:18;;;;;;;0.50;0.50;;;;;;;4.83;64.70;101931.84;18498587;32;20117;-58
2023/01/24 03:35:06;;;;;;;0.73;0.73;;;;;;;4.66;65.80;101949.19;18497707;32;20103;-58
2023/01/24 03:45:15;;;;;;;0.62;0.62;;;;;;;4.74;65.97;101958.16;18497417;32;20383;-58
2023/01/24 03:55:20;;;;;;;1.90;1.80;;;;;;;4.90;65.56;101959.78;18496419;32;20140;-58
2023/01/24 04:05:24;;;;;;;0.75;0.75;;;;;;;4.89;65.48;101962.31;18498447;32;20107;-58
2023/01/24 04:15:30;;;;;;;1.55;1.10;;;;;;;4.85;66.20;101959.59;18496479;32;20092;-58
2023/01/24 04:25:34;;;;;;;0.60;0.60;;;;;;;4.91;65.78;101968.44;18496436;32;20103;-58
2023/01/24 04:35:38;;;;;;;2.15;2.05;;;;;;;4.84;65.58;101965.56;18495868;32;20490;-58
2023/01/24 04:45:42;;;;;;;1.12;0.82;;;;;;;4.88;65.53;101963.13;18495378;32;20113;-58
2023/01/24 04:55:46;;;;;;;5.57;5.18;;;;;;;4.79;65.77;101969.63;18494705;32;20088;-58
2023/01/24 05:05:50;;;;;;;0.70;0.70;;;;;;;4.70;66.25;101966.63;18494502;32;20388;-58
2023/01/24 05:15:54;;;;;;;1.02;0.93;;;;;;;4.89;65.81;101970.97;18493622;32;20407;-58
2023/01/24 05:25:59;;;;;;;2.28;2.17;;;;;;;4.91;65.86;101986.53;18493215;32;20092;-58
2023/01/24 05:36:06;;;;;;;6.43;5.87;;;;;;;4.84;65.89;101991.44;18495565;32;20440;-59
2023/01/24 05:46:11;;;;;;;0.95;0.95;;;;;;;4.78;65.96;101991.16;18500678;32;20092;-59
2023/01/24 05:56:17;;;;;;;1.05;1.05;;;;;;;4.74;66.38;102003.88;18499269;32;20084;-58
2023/01/24 06:06:22;;;;;;;0.85;0.85;;;;;;;4.82;66.24;102003.41;18500262;32;20433;-58
2023/01/24 06:16:27;;;;;;;0.73;0.73;;;;;;;4.78;66.45;102019.63;18499013;32;20380;-59
2023/01/24 06:26:31;;;;;;;2.15;1.95;;;;;;;4.85;66.09;102024.28;18500410;32;20097;-58
2023/01/24 06:36:43;;;;;;;0.50;0.50;;;;;;;4.81;66.06;102040.44;18498345;32;20353;-58
2023/01/24 06:46:47;;;;;;;0.70;0.70;;;;;;;4.76;66.43;102046.22;18488613;32;20124;-58
2023/01/24 06:56:52;;;;;;;1.80;1.77;;;;;;;4.81;66.12;102043.03;18490997;32;20541;-58
2023/01/24 07:06:55;;;;;;;0.60;0.60;;;;;;;4.96;65.98;102042.00;18494782;32;20602;-58
2023/01/24 07:17:00;;;;;;;3.28;3.08;;;;;;;5.07;66.15;102045.09;18484392;32;20100;-60
2023/01/24 07:27:10;;;;;;;1.55;1.45;;;;;;;5.16;66.43;102052.41;18494243;32;20103;-59
2023/01/24 07:37:22;;;;;;;3.78;3.58;;;;;;;5.39;66.23;102058.66;18495595;32;20387;-58
2023/01/24 07:47:27;;;;;;;1.20;1.20;;;;;;;5.52;66.58;102070.47;18496980;32;20111;-59
2023/01/24 07:57:32;;;;;;;0.82;0.82;;;;;;;5.91;66.97;102080.84;18496327;32;20101;-59
2023/01/24 08:07:35;;;;;;;2.05;1.77;;;;;;;6.40;66.66;102073.44;18497278;32;20105;-60
2023/01/24 08:17:41;;;;;;;0.70;0.70;;;;;;;6.85;65.97;102072.66;18495612;32;20115;-60
2023/01/24 08:27:44;;;;;;;0.68;0.68;;;;;;;6.98;65.39;102079.22;18495446;32;20103;-60
2023/01/24 08:37:51;;;;;;;5.05;4.43;;;;;;;6.97;65.98;102086.94;18492027;32;20089;-60
2023/01/24 08:47:54;;;;;;;1.55;1.45;;;;;;;7.42;64.98;102093.88;18495323;32;20105;-60
2023/01/24 08:58:04;;;;;;;0.85;0.82;;;;;;;8.10;63.48;102104.16;18494254;32;20522;-58
2023/01/24 09:08:07;;;;;;;0.55;0.55;;;;;;;8.60;62.88;102103.28;18492198;32;20088;-58
2023/01/24 09:18:12;;;;;;;1.17;1.02;;;;;;;9.02;60.88;102109.84;18490742;32;20376;-58
2023/01/24 09:28:15;;;;;;;1.23;1.20;;;;;;;9.41;59.90;102109.28;18492244;32;20422;-59
2023/01/24 09:38:22;;;;;;;0.88;0.88;;;;;;;10.40;57.86;102099.84;18492242;32;20186;-59
2023/01/24 09:48:26;;;;;;;2.20;1.52;;;;;;;10.83;56.23;102097.47;18470619;32;20441;-59
2023/01/24 09:58:34;;;;;;;0.57;0.57;;;;;;;11.10;55.09;102083.28;18488061;32;20104;-59
2023/01/24 10:08:46;;;;;;;0.55;0.55;;;;;;;11.02;50.04;102074.37;18487396;32;20144;-59
2023/01/24 10:19:03;;;;;;;1.02;0.98;;;;;;;10.87;50.54;102072.28;18471161;32;20115;-59
2023/01/24 10:29:14;;;;;;;0.50;0.50;;;;;;;11.30;50.04;102064.53;18498366;32;20116;-59
2023/01/24 10:39:18;;;;;;;1.02;0.68;;;;;;;11.23;49.48;102051.31;18499078;32;20089;-59
2023/01/24 10:49:25;;;;;;;0.65;0.60;;;;;;;11.14;48.75;102045.91;18499084;32;20145;-61
2023/01/24 10:59:30;;;;;;;2.30;2.00;;;;;;;11.23;48.55;102029.50;18435606;32;20723;-59
2023/01/24 11:09:34;;;;;;;0.50;0.50;;;;;;;11.81;47.95;102015.88;18434408;32;20108;-58
2023/01/24 11:19:40;;;;;;;0.30;0.30;;;;;;;11.47;47.72;101995.16;18435369;32;20158;-59
2023/01/24 11:29:43;;;;;;;0.30;0.30;;;;;;;11.78;47.28;101972.19;18496085;32;20107;-59
2023/01/24 11:39:56;;;;;;;0.75;0.70;;;;;;;11.98;46.71;101969.06;18484019;32;336077;-59
2023/01/24 11:50:20;;;;;;;0.57;0.57;;;;;;;11.73;47.04;101963.38;18497295;32;20120;-59
2023/01/24 12:00:32;;;;;;;0.88;0.68;;;;;;;11.79;46.59;101960.88;18496036;32;20093;-59
2023/01/24 12:10:46;;;;;;;0.50;0.50;;;;;;;12.14;46.80;101951.00;18493637;32;20096;-59
2023/01/24 12:21:09;;;;;;;0.35;0.35;;;;;;;12.05;46.66;101957.88;18490448;32;20100;-59
2023/01/24 12:31:17;;;;;;;0.30;0.30;;;;;;;12.43;46.17;101945.37;18494373;32;20158;-59
2023/01/24 12:41:32;;;;;;;0.52;0.47;;;;;;;12.29;45.95;101951.25;18495127;32;20392;-59
2023/01/24 12:51:40;;;;;;;1.75;1.50;;;;;;;12.28;46.55;101952.13;18493036;32;20138;-59
2023/01/24 13:02:02;;;;;;;0.57;0.57;;;;;;;12.29;46.04;101946.00;18494480;32;20089;-59
2023/01/24 13:12:12;;;;;;;1.08;1.08;;;;;;;11.91;46.89;101941.00;18491079;32;20314;-59
2023/01/24 13:22:31;;;;;;;0.60;0.60;;;;;;;12.09;46.91;101931.75;18491341;32;20465;-59
2023/01/24 13:32:38;;;;;;;0.50;0.50;;;;;;;12.18;45.83;101939.75;18339754;32;20125;-60
2023/01/24 13:42:43;;;;;;;0.35;0.35;;;;;;;12.27;46.06;101937.25;18353965;32;20173;-59
2023/01/24 13:52:48;;;;;;;0.73;0.45;;;;;;;12.52;46.20;101937.63;18386399;32;20434;-59
2023/01/24 14:03:16;;;;;;;0.70;0.70;;;;;;;12.38;46.80;101947.03;18437214;32;20144;-59
2023/01/24 14:13:43;;;;;;;0.60;0.60;;;;;;;12.32;46.30;101938.19;18492163;32;20101;-59
2023/01/24 14:23:50;;;;;;;0.47;0.47;;;;;;;12.47;45.70;101944.53;18481912;32;20127;-59
2023/01/24 14:33:56;;;;;;;0.50;0.50;;;;;;;12.32;46.29;101938.19;18464656;32;20089;-59
2023/01/24 14:44:01;;;;;;;0.50;0.50;;;;;;;12.07;46.65;101953.53;18485108;32;20128;-59
2023/01/24 14:54:19;;;;;;;0.40;0.40;;;;;;;11.78;48.03;101945.16;18445609;32;20473;-59
2023/01/24 15:04:27;;;;;;;0.43;0.43;;;;;;;11.80;48.27;101948.66;18434361;32;20118;-59
2023/01/24 15:14:31;;;;;;;0.77;0.65;;;;;;;11.51;49.07;101956.84;18433103;32;20092;-59
2023/01/24 15:24:35;;;;;;;1.83;1.08;;;;;;;11.24;49.49;101974.66;18434730;32;20116;-59
2023/01/24 15:34:39;;;;;;;1.75;1.30;;;;;;;11.07;49.68;101982.16;18432912;32;20131;-59
2023/01/24 15:44:46;;;;;;;3.30;2.35;;;;;;;10.89;49.99;101993.06;18432610;32;20089;-59
2023/01/24 15:54:55;;;;;;;1.35;1.25;;;;;;;10.58;50.49;101995.00;18433919;32;20115;-59
2023/01/24 16:05:00;;;;;;;1.02;1.02;;;;;;;9.87;51.92;102001.06;18432918;32;20112;-59
2023/01/24 16:15:04;;;;;;;0.75;0.75;;;;;;;9.26;53.71;102007.22;18432633;32;20101;-59
2023/01/24 16:25:14;;;;;;;1.00;1.00;;;;;;;8.66;54.89;102009.75;18432282;32;20138;-58
2023/01/24 16:35:18;;;;;;;0.85;0.85;;;;;;;8.24;55.74;102008.38;18431783;32;20088;-59
2023/01/24 16:45:27;;;;;;;0.75;0.75;;;;;;;7.82;56.72;102017.38;18430457;32;20417;-58
2023/01/24 16:55:33;;;;;;;2.85;1.27;;;;;;;7.26;58.20;102023.16;18427948;32;20101;-59
2023/01/24 17:05:39;;;;;;;1.80;1.67;;;;;;;7.05;58.11;102031.00;18430914;32;20158;-59
2023/01/24 17:15:43;;;;;;;0.60;0.60;;;;;;;6.70;58.65;102039.19;18430101;32;20452;-59
2023/01/24 17:25:47;;;;;;;0.60;0.60;;;;;;;6.48;59.32;102043.50;18429022;32;20429;-59
2023/01/24 17:35:51;;;;;;;0.55;0.55;;;;;;;6.28;59.54;102052.16;18434846;32;20135;-59
2023/01/24 17:45:57;;;;;;;1.00;0.98;;;;;;;5.95;60.65;102054.22;18436790;32;20112;-59
2023/01/24 17:56:01;;;;;;;0.70;0.70;;;;;;;5.80;60.65;102064.81;18436243;32;20437;-58
2023/01/24 18:06:06;;;;;;;1.15;1.15;;;;;;;5.69;61.27;102071.22;18441986;32;20109;-59
2023/01/24 18:16:12;;;;;;;3.80;1.50;;;;;;;5.60;61.35;102071.72;18459045;32;20675;-59
2023/01/24 18:26:16;;;;;;;1.23;1.12;;;;;;;5.27;61.82;102074.50;18435535;32;20092;-58
2023/01/24 18:36:21;;;;;;;2.35;0.88;;;;;;;5.10;62.33;102066.81;18435241;32;20100;-59
2023/01/24 18:46:26;;;;;;;2.25;2.05;;;;;;;4.80;63.14;102069.72;18434824;32;20142;-59
2023/01/24 18:56:29;;;;;;;0.70;0.70;;;;;;;4.79;62.85;102070.53;18444505;32;20105;-58
2023/01/24 19:06:36;;;;;;;0.75;0.75;;;;;;;4.43;63.81;102070.50;18433747;32;20107;-59
2023/01/24 19:16:42;;;;;;;1.95;1.85;;;;;;;4.38;63.80;102075.44;18434052;32;20096;-59
2023/01/24 19:26:49;;;;;;;6.20;5.68;;;;;;;4.41;63.59;102073.03;18463557;32;20118;-58
2023/01/24 19:36:52;;;;;;;1.05;1.05;;;;;;;4.39;63.40;102076.34;18498693;32;20085;-58
2023/01/24 19:46:57;;;;;;;3.22;3.05;;;;;;;4.29;63.63;102081.06;18498044;32;20098;-58
2023/01/24 19:57:01;;;;;;;2.55;2.42;;;;;;;4.17;64.19;102088.16;18496548;32;20112;-58
2023/01/24 20:07:06;;;;;;;1.05;1.05;;;;;;;4.25;63.95;102089.44;18496967;32;20407;-58
2023/01/24 20:17:09;;;;;;;2.12;2.03;;;;;;;3.78;65.22;102091.34;18496683;32;20506;-58
2023/01/24 20:27:14;;;;;;;1.15;1.12;;;;;;;4.03;64.26;102100.38;18497592;32;20085;-58
2023/01/24 20:37:19;;;;;;;31.48;5.87;;;;;;;4.00;63.82;102116.62;18495097;32;20396;-58
2023/01/24 20:47:26;;;;;;;5.45;4.12;;;;;;;3.94;63.99;102103.38;18488430;32;20132;-58
2023/01/24 20:57:29;;;;;;;3.10;2.65;;;;;;;3.97;64.66;102098.34;18491464;32;20186;-58
2023/01/24 21:07:34;;;;;;;1.75;1.65;;;;;;;4.11;64.68;102091.31;18490340;32;20253;-58
2023/01/24 21:17:38;;;;;;;3.28;1.62;;;;;;;4.13;64.37;102094.91;18489442;32;20125;-58
2023/01/24 21:27:49;;;;;;;1.00;1.00;;;;;;;4.04;63.95;102091.84;18492704;32;20072;-58
2023/01/24 21:37:54;;;;;;;3.28;3.08;;;;;;;3.92;63.89;102102.41;18492342;32;20116;-58
2023/01/24 21:47:59;;;;;;;4.80;2.05;;;;;;;3.58;64.36;102090.28;18492143;32;20092;-58
2023/01/24 21:58:04;;;;;;;7.32;4.28;;;;;;;3.42;64.49;102104.97;18491920;32;20092;-58
2023/01/24 22:08:09;;;;;;;0.70;0.70;;;;;;;3.48;63.99;102099.22;18490609;32;20388;-59
2023/01/24 22:18:15;;;;;;;2.67;2.53;;;;;;;2.78;65.71;102093.69;18492570;32;20111;-58
2023/01/24 22:28:21;;;;;;;1.27;1.10;;;;;;;2.89;65.25;102107.19;18495577;32;20097;-58
2023/01/24 22:38:25;;;;;;;0.80;0.80;;;;;;;2.94;65.30;102114.28;18493615;32;20092;-58
2023/01/24 22:48:30;;;;;;;1.83;1.73;;;;;;;3.10;64.77;102106.62;18498263;32;20120;-58
2023/01/24 22:58:33;;;;;;;2.97;2.80;;;;;;;3.04;65.00;102106.31;18499202;32;20429;-58
2023/01/24 23:08:38;;;;;;;3.78;3.45;;;;;;;3.02;65.11;102102.72;18498483;32;20107;-58
2023/01/24 23:29:29;;;;;;;3.25;3.05;;;;;;;2.99;64.64;102105.13;18275150;32;20116;-58
2023/01/24 23:39:32;;;;;;;2.58;2.45;;;;;;;2.84;64.87;102106.03;18344578;32;20163;-58
2023/01/24 23:49:37;;;;;;;1.23;1.23;;;;;;;2.91;64.81;102110.75;18295517;32;20130;-59
2023/01/24 23:59:40;;;;;;;0.77;0.77;;;;;;;2.87;64.37;102119.13;18356863;32;20437;-59
